<?xml version="1.0" encoding="UTF-8" standalone="no" ?>
<gpx xmlns="http://www.topografix.com/GPX/1/1" xmlns:xsi="http://www.w3.org/2001/XMLSchema-instance" xsi:schemaLocation="http://www.topografix.com/GPX/1/1 http://www.topografix.com/GPX/1/1/gpx.xsd" version="1.1" creator="VisuGPX - https://www.visugpx.com">
  <metadata>
    <name>Traces DPT 33</name>
    <desc><![CDATA[Total: 12.2km]]></desc>
  </metadata>
  <trk>
    <name><![CDATA[randogps33-497]]></name>
    <extensions>
      <line xmlns="http://www.topografix.com/GPX/gpx_style/0/2">
        <color>FFFF00</color>
        <width>4</width>
      </line>
    </extensions>
    <trkseg>
      <trkpt lat="44.77873" lon="-0.12471">
        <ele>70</ele>
        <time>2016-11-24T11:24:04Z</time>
      </trkpt>
      <trkpt lat="44.77789" lon="-0.12532">
        <ele>69</ele>
        <time>2016-11-24T11:26:04Z</time>
      </trkpt>
      <trkpt lat="44.77795" lon="-0.12564">
        <ele>68</ele>
        <time>2016-11-24T11:28:04Z</time>
      </trkpt>
      <trkpt lat="44.77803" lon="-0.12584">
        <ele>67</ele>
        <time>2016-11-24T11:30:04Z</time>
      </trkpt>
      <trkpt lat="44.77815" lon="-0.126">
        <ele>66</ele>
        <time>2016-11-24T11:32:04Z</time>
      </trkpt>
      <trkpt lat="44.77835" lon="-0.12616">
        <ele>65</ele>
        <time>2016-11-24T11:34:04Z</time>
      </trkpt>
      <trkpt lat="44.77847" lon="-0.12665">
        <ele>64</ele>
        <time>2016-11-24T11:36:04Z</time>
      </trkpt>
      <trkpt lat="44.77831" lon="-0.12672">
        <ele>64</ele>
        <time>2016-11-24T11:38:04Z</time>
      </trkpt>
      <trkpt lat="44.7784" lon="-0.12695">
        <ele>62</ele>
        <time>2016-11-24T11:40:04Z</time>
      </trkpt>
      <trkpt lat="44.77872" lon="-0.127">
        <ele>62</ele>
        <time>2016-11-24T11:42:04Z</time>
      </trkpt>
      <trkpt lat="44.77881" lon="-0.1276">
        <ele>58</ele>
        <time>2016-11-24T11:44:04Z</time>
      </trkpt>
      <trkpt lat="44.77859" lon="-0.12807">
        <ele>56</ele>
        <time>2016-11-24T11:46:04Z</time>
      </trkpt>
      <trkpt lat="44.7787" lon="-0.12846">
        <ele>56</ele>
        <time>2016-11-24T11:48:04Z</time>
      </trkpt>
      <trkpt lat="44.77899" lon="-0.12902">
        <ele>59</ele>
        <time>2016-11-24T11:50:04Z</time>
      </trkpt>
      <trkpt lat="44.77927" lon="-0.12897">
        <ele>59</ele>
        <time>2016-11-24T11:52:04Z</time>
      </trkpt>
      <trkpt lat="44.77945" lon="-0.12918">
        <ele>61</ele>
        <time>2016-11-24T11:54:04Z</time>
      </trkpt>
      <trkpt lat="44.77961" lon="-0.12918">
        <ele>62</ele>
        <time>2016-11-24T11:56:04Z</time>
      </trkpt>
      <trkpt lat="44.77997" lon="-0.12989">
        <ele>68</ele>
        <time>2016-11-24T11:58:04Z</time>
      </trkpt>
      <trkpt lat="44.78024" lon="-0.1309">
        <ele>73</ele>
        <time>2016-11-24T12:00:04Z</time>
      </trkpt>
      <trkpt lat="44.7808" lon="-0.13095">
        <ele>74</ele>
        <time>2016-11-24T12:02:04Z</time>
      </trkpt>
      <trkpt lat="44.78145" lon="-0.13077">
        <ele>73</ele>
        <time>2016-11-24T12:04:04Z</time>
      </trkpt>
      <trkpt lat="44.78179" lon="-0.13095">
        <ele>74</ele>
        <time>2016-11-24T12:06:04Z</time>
      </trkpt>
      <trkpt lat="44.78229" lon="-0.13136">
        <ele>77</ele>
        <time>2016-11-24T12:08:04Z</time>
      </trkpt>
      <trkpt lat="44.78308" lon="-0.13166">
        <ele>78</ele>
        <time>2016-11-24T12:10:04Z</time>
      </trkpt>
      <trkpt lat="44.78361" lon="-0.13205">
        <ele>79</ele>
        <time>2016-11-24T12:12:04Z</time>
      </trkpt>
      <trkpt lat="44.7843" lon="-0.13287">
        <ele>81</ele>
        <time>2016-11-24T12:14:04Z</time>
      </trkpt>
      <trkpt lat="44.78483" lon="-0.13336">
        <ele>81</ele>
        <time>2016-11-24T12:16:04Z</time>
      </trkpt>
      <trkpt lat="44.78543" lon="-0.13394">
        <ele>80</ele>
        <time>2016-11-24T12:18:04Z</time>
      </trkpt>
      <trkpt lat="44.78613" lon="-0.13437">
        <ele>79</ele>
        <time>2016-11-24T12:20:04Z</time>
      </trkpt>
      <trkpt lat="44.78651" lon="-0.13501">
        <ele>80</ele>
        <time>2016-11-24T12:22:04Z</time>
      </trkpt>
      <trkpt lat="44.78676" lon="-0.13572">
        <ele>79</ele>
        <time>2016-11-24T12:24:04Z</time>
      </trkpt>
      <trkpt lat="44.78687" lon="-0.13624">
        <ele>77</ele>
        <time>2016-11-24T12:26:04Z</time>
      </trkpt>
      <trkpt lat="44.78737" lon="-0.13699">
        <ele>76</ele>
        <time>2016-11-24T12:28:04Z</time>
      </trkpt>
      <trkpt lat="44.78781" lon="-0.13767">
        <ele>74</ele>
        <time>2016-11-24T12:30:04Z</time>
      </trkpt>
      <trkpt lat="44.78812" lon="-0.13883">
        <ele>72</ele>
        <time>2016-11-24T12:32:04Z</time>
      </trkpt>
      <trkpt lat="44.78825" lon="-0.13925">
        <ele>71</ele>
        <time>2016-11-24T12:34:04Z</time>
      </trkpt>
      <trkpt lat="44.78848" lon="-0.13953">
        <ele>70</ele>
        <time>2016-11-24T12:36:04Z</time>
      </trkpt>
      <trkpt lat="44.78959" lon="-0.14045">
        <ele>67</ele>
        <time>2016-11-24T12:38:04Z</time>
      </trkpt>
      <trkpt lat="44.78996" lon="-0.14085">
        <ele>68</ele>
        <time>2016-11-24T12:40:04Z</time>
      </trkpt>
      <trkpt lat="44.79076" lon="-0.14217">
        <ele>72</ele>
        <time>2016-11-24T12:42:04Z</time>
      </trkpt>
      <trkpt lat="44.79142" lon="-0.14304">
        <ele>73</ele>
        <time>2016-11-24T12:44:04Z</time>
      </trkpt>
      <trkpt lat="44.79329" lon="-0.14326">
        <ele>81</ele>
        <time>2016-11-24T12:46:04Z</time>
      </trkpt>
      <trkpt lat="44.79397" lon="-0.1436">
        <ele>77</ele>
        <time>2016-11-24T12:48:04Z</time>
      </trkpt>
      <trkpt lat="44.79456" lon="-0.14464">
        <ele>73</ele>
        <time>2016-11-24T12:50:04Z</time>
      </trkpt>
      <trkpt lat="44.79572" lon="-0.14779">
        <ele>68</ele>
        <time>2016-11-24T12:52:04Z</time>
      </trkpt>
      <trkpt lat="44.79601" lon="-0.14837">
        <ele>68</ele>
        <time>2016-11-24T12:54:04Z</time>
      </trkpt>
      <trkpt lat="44.79679" lon="-0.14948">
        <ele>69</ele>
        <time>2016-11-24T12:56:04Z</time>
      </trkpt>
      <trkpt lat="44.79775" lon="-0.15006">
        <ele>69</ele>
        <time>2016-11-24T12:58:04Z</time>
      </trkpt>
      <trkpt lat="44.79807" lon="-0.15002">
        <ele>68</ele>
        <time>2016-11-24T13:00:04Z</time>
      </trkpt>
      <trkpt lat="44.79845" lon="-0.15012">
        <ele>65</ele>
        <time>2016-11-24T13:02:04Z</time>
      </trkpt>
      <trkpt lat="44.79909" lon="-0.15021">
        <ele>56</ele>
        <time>2016-11-24T13:04:04Z</time>
      </trkpt>
      <trkpt lat="44.79952" lon="-0.15095">
        <ele>54</ele>
        <time>2016-11-24T13:06:04Z</time>
      </trkpt>
      <trkpt lat="44.79986" lon="-0.15138">
        <ele>52</ele>
        <time>2016-11-24T13:08:04Z</time>
      </trkpt>
      <trkpt lat="44.80036" lon="-0.15147">
        <ele>43</ele>
        <time>2016-11-24T13:10:04Z</time>
      </trkpt>
      <trkpt lat="44.80117" lon="-0.15121">
        <ele>31</ele>
        <time>2016-11-24T13:12:04Z</time>
      </trkpt>
      <trkpt lat="44.80077" lon="-0.14989">
        <ele>34</ele>
        <time>2016-11-24T13:14:04Z</time>
      </trkpt>
      <trkpt lat="44.80062" lon="-0.14932">
        <ele>32</ele>
        <time>2016-11-24T13:16:04Z</time>
      </trkpt>
      <trkpt lat="44.80035" lon="-0.14844">
        <ele>30</ele>
        <time>2016-11-24T13:18:04Z</time>
      </trkpt>
      <trkpt lat="44.80012" lon="-0.14789">
        <ele>30</ele>
        <time>2016-11-24T13:20:04Z</time>
      </trkpt>
      <trkpt lat="44.7994" lon="-0.147">
        <ele>29</ele>
        <time>2016-11-24T13:22:04Z</time>
      </trkpt>
      <trkpt lat="44.79909" lon="-0.1465">
        <ele>29</ele>
        <time>2016-11-24T13:24:04Z</time>
      </trkpt>
      <trkpt lat="44.79874" lon="-0.14567">
        <ele>31</ele>
        <time>2016-11-24T13:26:04Z</time>
      </trkpt>
      <trkpt lat="44.79913" lon="-0.14537">
        <ele>28</ele>
        <time>2016-11-24T13:28:04Z</time>
      </trkpt>
      <trkpt lat="44.79929" lon="-0.14559">
        <ele>27</ele>
        <time>2016-11-24T13:30:04Z</time>
      </trkpt>
      <trkpt lat="44.79944" lon="-0.14574">
        <ele>27</ele>
        <time>2016-11-24T13:32:04Z</time>
      </trkpt>
      <trkpt lat="44.79956" lon="-0.14559">
        <ele>26</ele>
        <time>2016-11-24T13:34:04Z</time>
      </trkpt>
      <trkpt lat="44.79936" lon="-0.14497">
        <ele>26</ele>
        <time>2016-11-24T13:36:04Z</time>
      </trkpt>
      <trkpt lat="44.79917" lon="-0.14495">
        <ele>27</ele>
        <time>2016-11-24T13:38:04Z</time>
      </trkpt>
      <trkpt lat="44.79903" lon="-0.14458">
        <ele>26</ele>
        <time>2016-11-24T13:40:04Z</time>
      </trkpt>
      <trkpt lat="44.79842" lon="-0.14479">
        <ele>30</ele>
        <time>2016-11-24T13:42:04Z</time>
      </trkpt>
      <trkpt lat="44.79809" lon="-0.14436">
        <ele>31</ele>
        <time>2016-11-24T13:44:04Z</time>
      </trkpt>
      <trkpt lat="44.79805" lon="-0.14397">
        <ele>31</ele>
        <time>2016-11-24T13:46:04Z</time>
      </trkpt>
      <trkpt lat="44.79776" lon="-0.14322">
        <ele>33</ele>
        <time>2016-11-24T13:48:04Z</time>
      </trkpt>
      <trkpt lat="44.79747" lon="-0.1426">
        <ele>34</ele>
        <time>2016-11-24T13:50:04Z</time>
      </trkpt>
      <trkpt lat="44.79858" lon="-0.14166">
        <ele>19</ele>
        <time>2016-11-24T13:52:04Z</time>
      </trkpt>
      <trkpt lat="44.79776" lon="-0.14021">
        <ele>21</ele>
        <time>2016-11-24T13:54:04Z</time>
      </trkpt>
      <trkpt lat="44.79753" lon="-0.13955">
        <ele>22</ele>
        <time>2016-11-24T13:56:04Z</time>
      </trkpt>
      <trkpt lat="44.79718" lon="-0.13836">
        <ele>24</ele>
        <time>2016-11-24T13:58:04Z</time>
      </trkpt>
      <trkpt lat="44.79689" lon="-0.13802">
        <ele>24</ele>
        <time>2016-11-24T14:00:04Z</time>
      </trkpt>
      <trkpt lat="44.79721" lon="-0.13749">
        <ele>21</ele>
        <time>2016-11-24T14:02:04Z</time>
      </trkpt>
      <trkpt lat="44.79726" lon="-0.1366">
        <ele>20</ele>
        <time>2016-11-24T14:04:04Z</time>
      </trkpt>
      <trkpt lat="44.79737" lon="-0.13632">
        <ele>21</ele>
        <time>2016-11-24T14:06:04Z</time>
      </trkpt>
      <trkpt lat="44.79726" lon="-0.13566">
        <ele>26</ele>
        <time>2016-11-24T14:08:04Z</time>
      </trkpt>
      <trkpt lat="44.79737" lon="-0.13542">
        <ele>30</ele>
        <time>2016-11-24T14:10:04Z</time>
      </trkpt>
      <trkpt lat="44.79762" lon="-0.1349">
        <ele>39</ele>
        <time>2016-11-24T14:12:04Z</time>
      </trkpt>
      <trkpt lat="44.79776" lon="-0.13468">
        <ele>44</ele>
        <time>2016-11-24T14:14:04Z</time>
      </trkpt>
      <trkpt lat="44.79793" lon="-0.13447">
        <ele>49</ele>
        <time>2016-11-24T14:16:04Z</time>
      </trkpt>
      <trkpt lat="44.7981" lon="-0.13427">
        <ele>54</ele>
        <time>2016-11-24T14:18:04Z</time>
      </trkpt>
      <trkpt lat="44.79808" lon="-0.13405">
        <ele>57</ele>
        <time>2016-11-24T14:20:04Z</time>
      </trkpt>
      <trkpt lat="44.79795" lon="-0.13394">
        <ele>57</ele>
        <time>2016-11-24T14:22:04Z</time>
      </trkpt>
      <trkpt lat="44.79797" lon="-0.13375">
        <ele>60</ele>
        <time>2016-11-24T14:24:04Z</time>
      </trkpt>
      <trkpt lat="44.79825" lon="-0.13377">
        <ele>62</ele>
        <time>2016-11-24T14:26:04Z</time>
      </trkpt>
      <trkpt lat="44.79853" lon="-0.13372">
        <ele>65</ele>
        <time>2016-11-24T14:28:04Z</time>
      </trkpt>
      <trkpt lat="44.79813" lon="-0.13357">
        <ele>64</ele>
        <time>2016-11-24T14:30:04Z</time>
      </trkpt>
      <trkpt lat="44.79788" lon="-0.13328">
        <ele>65</ele>
        <time>2016-11-24T14:32:04Z</time>
      </trkpt>
      <trkpt lat="44.79751" lon="-0.13291">
        <ele>64</ele>
        <time>2016-11-24T14:34:04Z</time>
      </trkpt>
      <trkpt lat="44.79753" lon="-0.13261">
        <ele>66</ele>
        <time>2016-11-24T14:36:04Z</time>
      </trkpt>
      <trkpt lat="44.79777" lon="-0.13232">
        <ele>69</ele>
        <time>2016-11-24T14:38:04Z</time>
      </trkpt>
      <trkpt lat="44.79712" lon="-0.13083">
        <ele>65</ele>
        <time>2016-11-24T14:40:04Z</time>
      </trkpt>
      <trkpt lat="44.79727" lon="-0.13043">
        <ele>66</ele>
        <time>2016-11-24T14:42:04Z</time>
      </trkpt>
      <trkpt lat="44.79743" lon="-0.12997">
        <ele>68</ele>
        <time>2016-11-24T14:44:04Z</time>
      </trkpt>
      <trkpt lat="44.79756" lon="-0.12968">
        <ele>69</ele>
        <time>2016-11-24T14:46:04Z</time>
      </trkpt>
      <trkpt lat="44.79744" lon="-0.12928">
        <ele>68</ele>
        <time>2016-11-24T14:48:04Z</time>
      </trkpt>
      <trkpt lat="44.79837" lon="-0.12814">
        <ele>76</ele>
        <time>2016-11-24T14:50:04Z</time>
      </trkpt>
      <trkpt lat="44.79801" lon="-0.12785">
        <ele>76</ele>
        <time>2016-11-24T14:52:04Z</time>
      </trkpt>
      <trkpt lat="44.79733" lon="-0.12774">
        <ele>75</ele>
        <time>2016-11-24T14:54:04Z</time>
      </trkpt>
      <trkpt lat="44.79612" lon="-0.12759">
        <ele>75</ele>
        <time>2016-11-24T14:56:04Z</time>
      </trkpt>
      <trkpt lat="44.79568" lon="-0.12741">
        <ele>76</ele>
        <time>2016-11-24T14:58:04Z</time>
      </trkpt>
      <trkpt lat="44.79699" lon="-0.12473">
        <ele>82</ele>
        <time>2016-11-24T15:00:04Z</time>
      </trkpt>
      <trkpt lat="44.79391" lon="-0.12174">
        <ele>81</ele>
        <time>2016-11-24T15:02:04Z</time>
      </trkpt>
      <trkpt lat="44.79424" lon="-0.12129">
        <ele>82</ele>
        <time>2016-11-24T15:04:04Z</time>
      </trkpt>
      <trkpt lat="44.79394" lon="-0.12083">
        <ele>82</ele>
        <time>2016-11-24T15:06:04Z</time>
      </trkpt>
      <trkpt lat="44.79347" lon="-0.11973">
        <ele>79</ele>
        <time>2016-11-24T15:08:04Z</time>
      </trkpt>
      <trkpt lat="44.7928" lon="-0.11806">
        <ele>80</ele>
        <time>2016-11-24T15:10:04Z</time>
      </trkpt>
      <trkpt lat="44.79262" lon="-0.11761">
        <ele>80</ele>
        <time>2016-11-24T15:12:04Z</time>
      </trkpt>
      <trkpt lat="44.79255" lon="-0.11709">
        <ele>81</ele>
        <time>2016-11-24T15:14:04Z</time>
      </trkpt>
      <trkpt lat="44.79248" lon="-0.11577">
        <ele>82</ele>
        <time>2016-11-24T15:16:04Z</time>
      </trkpt>
      <trkpt lat="44.79233" lon="-0.11487">
        <ele>81</ele>
        <time>2016-11-24T15:18:04Z</time>
      </trkpt>
      <trkpt lat="44.79226" lon="-0.11454">
        <ele>80</ele>
        <time>2016-11-24T15:20:04Z</time>
      </trkpt>
      <trkpt lat="44.79154" lon="-0.112">
        <ele>79</ele>
        <time>2016-11-24T15:22:04Z</time>
      </trkpt>
      <trkpt lat="44.79127" lon="-0.11079">
        <ele>80</ele>
        <time>2016-11-24T15:24:04Z</time>
      </trkpt>
      <trkpt lat="44.79107" lon="-0.10878">
        <ele>74</ele>
        <time>2016-11-24T15:26:04Z</time>
      </trkpt>
      <trkpt lat="44.7909" lon="-0.10729">
        <ele>68</ele>
        <time>2016-11-24T15:28:04Z</time>
      </trkpt>
      <trkpt lat="44.79075" lon="-0.10652">
        <ele>67</ele>
        <time>2016-11-24T15:30:04Z</time>
      </trkpt>
      <trkpt lat="44.79083" lon="-0.10616">
        <ele>66</ele>
        <time>2016-11-24T15:32:04Z</time>
      </trkpt>
      <trkpt lat="44.78985" lon="-0.10507">
        <ele>66</ele>
        <time>2016-11-24T15:34:04Z</time>
      </trkpt>
      <trkpt lat="44.78846" lon="-0.10174">
        <ele>66</ele>
        <time>2016-11-24T15:36:04Z</time>
      </trkpt>
      <trkpt lat="44.78734" lon="-0.09887">
        <ele>73</ele>
        <time>2016-11-24T15:38:04Z</time>
      </trkpt>
      <trkpt lat="44.7865" lon="-0.09931">
        <ele>73</ele>
        <time>2016-11-24T15:40:04Z</time>
      </trkpt>
      <trkpt lat="44.78575" lon="-0.09977">
        <ele>74</ele>
        <time>2016-11-24T15:42:04Z</time>
      </trkpt>
      <trkpt lat="44.78513" lon="-0.09753">
        <ele>76</ele>
        <time>2016-11-24T15:44:04Z</time>
      </trkpt>
      <trkpt lat="44.78516" lon="-0.09718">
        <ele>77</ele>
        <time>2016-11-24T15:46:04Z</time>
      </trkpt>
      <trkpt lat="44.78496" lon="-0.09694">
        <ele>78</ele>
        <time>2016-11-24T15:48:04Z</time>
      </trkpt>
      <trkpt lat="44.7846" lon="-0.09504">
        <ele>81</ele>
        <time>2016-11-24T15:50:04Z</time>
      </trkpt>
      <trkpt lat="44.78396" lon="-0.09531">
        <ele>86</ele>
        <time>2016-11-24T15:52:04Z</time>
      </trkpt>
      <trkpt lat="44.78397" lon="-0.09586">
        <ele>84</ele>
        <time>2016-11-24T15:54:04Z</time>
      </trkpt>
      <trkpt lat="44.78167" lon="-0.09603">
        <ele>90</ele>
        <time>2016-11-24T15:56:04Z</time>
      </trkpt>
      <trkpt lat="44.7814" lon="-0.09458">
        <ele>91</ele>
        <time>2016-11-24T15:58:04Z</time>
      </trkpt>
      <trkpt lat="44.78044" lon="-0.09465">
        <ele>93</ele>
        <time>2016-11-24T16:00:04Z</time>
      </trkpt>
      <trkpt lat="44.77935" lon="-0.09486">
        <ele>94</ele>
        <time>2016-11-24T16:02:04Z</time>
      </trkpt>
      <trkpt lat="44.77819" lon="-0.09511">
        <ele>94</ele>
        <time>2016-11-24T16:04:04Z</time>
      </trkpt>
      <trkpt lat="44.77644" lon="-0.09542">
        <ele>93</ele>
        <time>2016-11-24T16:06:04Z</time>
      </trkpt>
      <trkpt lat="44.77606" lon="-0.09564">
        <ele>92</ele>
        <time>2016-11-24T16:08:04Z</time>
      </trkpt>
      <trkpt lat="44.77511" lon="-0.09588">
        <ele>90</ele>
        <time>2016-11-24T16:10:04Z</time>
      </trkpt>
      <trkpt lat="44.77473" lon="-0.09607">
        <ele>90</ele>
        <time>2016-11-24T16:12:04Z</time>
      </trkpt>
      <trkpt lat="44.77429" lon="-0.09614">
        <ele>91</ele>
        <time>2016-11-24T16:14:04Z</time>
      </trkpt>
      <trkpt lat="44.77415" lon="-0.09576">
        <ele>92</ele>
        <time>2016-11-24T16:16:04Z</time>
      </trkpt>
      <trkpt lat="44.77405" lon="-0.09513">
        <ele>94</ele>
        <time>2016-11-24T16:18:04Z</time>
      </trkpt>
      <trkpt lat="44.77397" lon="-0.09503">
        <ele>94</ele>
        <time>2016-11-24T16:20:04Z</time>
      </trkpt>
      <trkpt lat="44.77366" lon="-0.09511">
        <ele>94</ele>
        <time>2016-11-24T16:22:04Z</time>
      </trkpt>
      <trkpt lat="44.7726" lon="-0.0958">
        <ele>93</ele>
        <time>2016-11-24T16:24:04Z</time>
      </trkpt>
      <trkpt lat="44.77219" lon="-0.09603">
        <ele>93</ele>
        <time>2016-11-24T16:26:04Z</time>
      </trkpt>
      <trkpt lat="44.77116" lon="-0.0967">
        <ele>95</ele>
        <time>2016-11-24T16:28:04Z</time>
      </trkpt>
      <trkpt lat="44.77017" lon="-0.09738">
        <ele>97</ele>
        <time>2016-11-24T16:30:04Z</time>
      </trkpt>
      <trkpt lat="44.76879" lon="-0.09805">
        <ele>102</ele>
        <time>2016-11-24T16:32:04Z</time>
      </trkpt>
      <trkpt lat="44.76892" lon="-0.09865">
        <ele>104</ele>
        <time>2016-11-24T16:34:04Z</time>
      </trkpt>
      <trkpt lat="44.76835" lon="-0.09899">
        <ele>105</ele>
        <time>2016-11-24T16:36:04Z</time>
      </trkpt>
      <trkpt lat="44.76782" lon="-0.09949">
        <ele>102</ele>
        <time>2016-11-24T16:38:04Z</time>
      </trkpt>
      <trkpt lat="44.76726" lon="-0.09991">
        <ele>97</ele>
        <time>2016-11-24T16:40:04Z</time>
      </trkpt>
      <trkpt lat="44.76696" lon="-0.10049">
        <ele>93</ele>
        <time>2016-11-24T16:42:04Z</time>
      </trkpt>
      <trkpt lat="44.76681" lon="-0.10055">
        <ele>92</ele>
        <time>2016-11-24T16:44:04Z</time>
      </trkpt>
      <trkpt lat="44.76664" lon="-0.10016">
        <ele>92</ele>
        <time>2016-11-24T16:46:04Z</time>
      </trkpt>
      <trkpt lat="44.76645" lon="-0.09996">
        <ele>91</ele>
        <time>2016-11-24T16:48:04Z</time>
      </trkpt>
      <trkpt lat="44.76562" lon="-0.10024">
        <ele>85</ele>
        <time>2016-11-24T16:50:04Z</time>
      </trkpt>
      <trkpt lat="44.76487" lon="-0.1008">
        <ele>80</ele>
        <time>2016-11-24T16:52:04Z</time>
      </trkpt>
      <trkpt lat="44.76374" lon="-0.10127">
        <ele>75</ele>
        <time>2016-11-24T16:54:04Z</time>
      </trkpt>
      <trkpt lat="44.76359" lon="-0.10121">
        <ele>75</ele>
        <time>2016-11-24T16:56:04Z</time>
      </trkpt>
      <trkpt lat="44.76325" lon="-0.10123">
        <ele>74</ele>
        <time>2016-11-24T16:58:04Z</time>
      </trkpt>
      <trkpt lat="44.76262" lon="-0.10164">
        <ele>72</ele>
        <time>2016-11-24T17:00:04Z</time>
      </trkpt>
      <trkpt lat="44.76224" lon="-0.10212">
        <ele>76</ele>
        <time>2016-11-24T17:02:04Z</time>
      </trkpt>
      <trkpt lat="44.76225" lon="-0.10241">
        <ele>77</ele>
        <time>2016-11-24T17:04:04Z</time>
      </trkpt>
      <trkpt lat="44.76245" lon="-0.10265">
        <ele>78</ele>
        <time>2016-11-24T17:06:04Z</time>
      </trkpt>
      <trkpt lat="44.76277" lon="-0.10267">
        <ele>77</ele>
        <time>2016-11-24T17:08:04Z</time>
      </trkpt>
      <trkpt lat="44.76293" lon="-0.10275">
        <ele>76</ele>
        <time>2016-11-24T17:10:04Z</time>
      </trkpt>
      <trkpt lat="44.76303" lon="-0.10299">
        <ele>76</ele>
        <time>2016-11-24T17:12:04Z</time>
      </trkpt>
      <trkpt lat="44.76297" lon="-0.10313">
        <ele>76</ele>
        <time>2016-11-24T17:14:04Z</time>
      </trkpt>
      <trkpt lat="44.76265" lon="-0.10317">
        <ele>77</ele>
        <time>2016-11-24T17:16:04Z</time>
      </trkpt>
      <trkpt lat="44.76249" lon="-0.1038">
        <ele>76</ele>
        <time>2016-11-24T17:18:04Z</time>
      </trkpt>
      <trkpt lat="44.76479" lon="-0.10536">
        <ele>85</ele>
        <time>2016-11-24T17:20:04Z</time>
      </trkpt>
      <trkpt lat="44.76525" lon="-0.10531">
        <ele>87</ele>
        <time>2016-11-24T17:22:04Z</time>
      </trkpt>
      <trkpt lat="44.76607" lon="-0.10567">
        <ele>90</ele>
        <time>2016-11-24T17:24:04Z</time>
      </trkpt>
      <trkpt lat="44.76717" lon="-0.10716">
        <ele>97</ele>
        <time>2016-11-24T17:26:04Z</time>
      </trkpt>
      <trkpt lat="44.76719" lon="-0.10738">
        <ele>97</ele>
        <time>2016-11-24T17:28:04Z</time>
      </trkpt>
      <trkpt lat="44.767" lon="-0.10836">
        <ele>99</ele>
        <time>2016-11-24T17:30:04Z</time>
      </trkpt>
      <trkpt lat="44.76691" lon="-0.10891">
        <ele>98</ele>
        <time>2016-11-24T17:32:04Z</time>
      </trkpt>
      <trkpt lat="44.76689" lon="-0.1116">
        <ele>96</ele>
        <time>2016-11-24T17:34:04Z</time>
      </trkpt>
      <trkpt lat="44.76689" lon="-0.11377">
        <ele>95</ele>
        <time>2016-11-24T17:36:04Z</time>
      </trkpt>
      <trkpt lat="44.76722" lon="-0.11454">
        <ele>94</ele>
        <time>2016-11-24T17:38:04Z</time>
      </trkpt>
      <trkpt lat="44.76758" lon="-0.11595">
        <ele>89</ele>
        <time>2016-11-24T17:40:04Z</time>
      </trkpt>
      <trkpt lat="44.76774" lon="-0.11634">
        <ele>88</ele>
        <time>2016-11-24T17:42:04Z</time>
      </trkpt>
      <trkpt lat="44.76945" lon="-0.11889">
        <ele>81</ele>
        <time>2016-11-24T17:44:04Z</time>
      </trkpt>
      <trkpt lat="44.77066" lon="-0.11846">
        <ele>80</ele>
        <time>2016-11-24T17:46:04Z</time>
      </trkpt>
      <trkpt lat="44.77233" lon="-0.11774">
        <ele>81</ele>
        <time>2016-11-24T17:48:04Z</time>
      </trkpt>
      <trkpt lat="44.77351" lon="-0.11713">
        <ele>81</ele>
        <time>2016-11-24T17:50:04Z</time>
      </trkpt>
      <trkpt lat="44.77447" lon="-0.11768">
        <ele>80</ele>
        <time>2016-11-24T17:52:04Z</time>
      </trkpt>
      <trkpt lat="44.77496" lon="-0.11786">
        <ele>81</ele>
        <time>2016-11-24T17:54:04Z</time>
      </trkpt>
      <trkpt lat="44.77538" lon="-0.11923">
        <ele>80</ele>
        <time>2016-11-24T17:56:04Z</time>
      </trkpt>
      <trkpt lat="44.77573" lon="-0.11967">
        <ele>79</ele>
        <time>2016-11-24T17:58:04Z</time>
      </trkpt>
      <trkpt lat="44.77585" lon="-0.11995">
        <ele>79</ele>
        <time>2016-11-24T18:00:04Z</time>
      </trkpt>
      <trkpt lat="44.77601" lon="-0.12095">
        <ele>77</ele>
        <time>2016-11-24T18:02:04Z</time>
      </trkpt>
      <trkpt lat="44.77653" lon="-0.12261">
        <ele>75</ele>
        <time>2016-11-24T18:04:04Z</time>
      </trkpt>
      <trkpt lat="44.77674" lon="-0.1232">
        <ele>73</ele>
        <time>2016-11-24T18:06:04Z</time>
      </trkpt>
      <trkpt lat="44.77734" lon="-0.12449">
        <ele>70</ele>
        <time>2016-11-24T18:08:04Z</time>
      </trkpt>
      <trkpt lat="44.77767" lon="-0.12529">
        <ele>69</ele>
        <time>2016-11-24T18:10:04Z</time>
      </trkpt>
      <trkpt lat="44.7778" lon="-0.12535">
        <ele>69</ele>
        <time>2016-11-24T18:12:04Z</time>
      </trkpt>
      <trkpt lat="44.7779" lon="-0.12557">
        <ele>68</ele>
        <time>2016-11-24T18:14:04Z</time>
      </trkpt>
      <trkpt lat="44.7782" lon="-0.12533">
        <ele>69</ele>
        <time>2016-11-24T18:16:04Z</time>
      </trkpt>
      <trkpt lat="44.77822" lon="-0.12505">
        <ele>70</ele>
        <time>2016-11-24T18:18:04Z</time>
      </trkpt>
      <trkpt lat="44.77877" lon="-0.12468">
        <ele>70</ele>
        <time>2016-11-24T18:20:04Z</time>
      </trkpt>
    </trkseg>
  </trk>
</gpx>